Time;durP1;ratioP1;P1;durP2;ratioP2;P2;SDS_P1;SDS_P2;PMS_P1;PMS_P2;Temp;Humidity;BMP_temperature;BMP_pressure;BME280_temperature;BME280_humidity;BME280_pressure;Samples;Min_cycle;Max_cycle;Signal;HPM_P1;HPM_P2
2022/08/25 00:01:34;;;;;;;2.30;2.10;;;25.30;58.50;;;;;;4969930;28;20026;-77
2022/08/25 00:04:02;;;;;;;2.75;2.10;;;25.30;58.50;;;;;;4925073;28;20112;-77
2022/08/25 00:06:28;;;;;;;2.95;2.10;;;25.30;58.30;;;;;;4967824;28;20447;-77
2022/08/25 00:08:58;;;;;;;2.95;2.35;;;25.20;58.40;;;;;;4968473;28;20655;-77
2022/08/25 00:11:26;;;;;;;2.80;2.17;;;25.10;58.50;;;;;;4934968;28;20426;-77
2022/08/25 00:13:55;;;;;;;2.60;2.17;;;25.10;58.70;;;;;;4931859;28;20419;-77
2022/08/25 00:16:22;;;;;;;2.13;1.92;;;25.00;58.80;;;;;;4965419;28;20564;-77
2022/08/25 00:18:50;;;;;;;2.55;2.20;;;24.90;58.70;;;;;;4969466;28;20055;-77
2022/08/25 00:21:16;;;;;;;3.10;2.25;;;24.90;59.00;;;;;;4948604;28;20065;-77
2022/08/25 00:23:44;;;;;;;2.90;2.40;;;24.90;59.00;;;;;;4955667;28;20032;-77
2022/08/25 00:26:11;;;;;;;3.30;2.15;;;24.80;59.10;;;;;;4942484;28;20037;-77
2022/08/25 00:28:38;;;;;;;3.20;2.40;;;24.80;59.30;;;;;;4939008;28;20077;-77
2022/08/25 00:31:05;;;;;;;6.72;2.40;;;24.70;59.20;;;;;;4942555;28;20026;-77
2022/08/25 00:33:33;;;;;;;2.80;2.40;;;24.70;59.50;;;;;;4939711;28;20558;-79
2022/08/25 00:35:59;;;;;;;2.43;2.23;;;24.60;59.50;;;;;;4917872;28;20072;-77
2022/08/25 00:38:25;;;;;;;2.90;2.38;;;24.50;59.60;;;;;;4943177;28;20035;-77
2022/08/25 00:41:04;;;;;;;2.92;2.30;;;24.50;59.70;;;;;;4929135;28;25830;-77
2022/08/25 00:43:51;;;;;;;2.83;2.40;;;24.40;59.80;;;;;;4957549;28;21976;-77
2022/08/25 00:46:20;;;;;;;3.42;2.42;;;24.30;61.30;;;;;;4941303;28;20028;-77
2022/08/25 00:48:50;;;;;;;2.47;2.27;;;24.30;60.20;;;;;;4948390;28;20018;-77
2022/08/25 00:51:22;;;;;;;3.03;2.30;;;24.20;60.30;;;;;;4969734;28;20479;-77
2022/08/25 00:53:50;;;;;;;3.47;2.40;;;24.20;60.50;;;;;;4942587;28;20030;-76
2022/08/25 00:56:16;;;;;;;3.10;2.33;;;24.10;60.40;;;;;;4945578;28;20110;-77
2022/08/25 00:58:42;;;;;;;3.10;2.38;;;24.10;60.60;;;;;;4944546;28;20176;-77
2022/08/25 01:01:08;;;;;;;2.97;2.37;;;24.00;60.60;;;;;;4955336;28;20100;-77
2022/08/25 01:03:34;;;;;;;2.67;2.20;;;24.00;60.80;;;;;;4970103;28;20026;-77
2022/08/25 01:06:01;;;;;;;3.33;2.40;;;24.00;60.80;;;;;;4948225;28;20295;-77
2022/08/25 01:08:30;;;;;;;3.25;2.60;;;23.90;61.20;;;;;;4959955;28;20030;-77
2022/08/25 01:10:59;;;;;;;3.08;2.22;;;23.90;61.30;;;;;;4964439;28;20224;-77
2022/08/25 01:13:48;;;;;;;3.08;2.20;;;23.80;61.30;;;;;;4946772;28;20030;-77
2022/08/25 01:16:15;;;;;;;2.83;2.50;;;23.80;62.80;;;;;;4944572;28;20135;-77
2022/08/25 01:18:47;;;;;;;2.77;2.10;;;23.80;61.30;;;;;;4967678;28;20038;-77
2022/08/25 01:21:13;;;;;;;3.35;2.30;;;23.70;62.10;;;;;;4952054;28;20089;-77
2022/08/25 01:23:38;;;;;;;3.25;2.47;;;23.70;61.40;;;;;;4959452;28;20039;-77
2022/08/25 01:26:10;;;;;;;2.80;2.40;;;23.70;61.40;;;;;;4937746;28;20125;-77
2022/08/25 01:28:37;;;;;;;3.85;2.45;;;23.60;61.80;;;;;;4950936;28;20054;-77
2022/08/25 01:31:04;;;;;;;2.60;2.30;;;23.50;61.60;;;;;;4912927;28;20723;-77
2022/08/25 01:33:29;;;;;;;3.60;2.30;;;23.50;61.70;;;;;;4970666;28;20109;-77
2022/08/25 01:35:55;;;;;;;2.60;2.37;;;23.40;61.80;;;;;;4958656;28;20084;-77
2022/08/25 01:38:21;;;;;;;3.57;2.40;;;23.40;62.20;;;;;;4946149;28;20273;-76
2022/08/25 01:40:47;;;;;;;3.15;2.40;;;23.30;62.20;;;;;;4970847;28;20478;-77
2022/08/25 01:43:34;;;;;;;2.27;2.07;;;23.30;62.30;;;;;;4934982;28;20599;-76
2022/08/25 01:46:00;;;;;;;2.95;2.20;;;23.20;64.10;;;;;;4934630;28;20042;-77
2022/08/25 01:48:25;;;;;;;2.70;2.30;;;23.20;62.40;;;;;;4955959;28;20537;-77
2022/08/25 01:50:51;;;;;;;4.00;2.10;;;23.10;62.50;;;;;;4945441;28;20554;-77
2022/08/25 01:53:20;;;;;;;2.70;2.13;;;23.10;62.60;;;;;;4967001;28;20172;-77
2022/08/25 01:55:54;;;;;;;2.77;2.47;;;23.10;62.70;;;;;;4972781;28;20034;-77
2022/08/25 01:58:26;;;;;;;3.08;2.55;;;23.00;62.90;;;;;;4945766;28;20023;-77
2022/08/25 02:00:55;;;;;;;2.97;2.38;;;23.00;63.90;;;;;;4935347;28;20035;-77
2022/08/25 02:03:23;;;;;;;3.30;2.50;;;23.00;63.20;;;;;;4959626;28;20412;-77
2022/08/25 02:05:49;;;;;;;2.55;2.28;;;22.90;63.20;;;;;;4972897;28;20372;-77
2022/08/25 02:08:16;;;;;;;2.97;2.47;;;22.80;63.20;;;;;;4924198;28;20840;-77
2022/08/25 02:10:42;;;;;;;2.80;2.30;;;22.80;63.30;;;;;;4963640;28;20490;-77
2022/08/25 02:13:08;;;;;;;3.83;2.35;;;22.80;63.30;;;;;;4937990;28;20543;-77
2022/08/25 02:15:40;;;;;;;3.45;2.40;;;22.70;63.40;;;;;;4948122;28;20400;-77
2022/08/25 02:18:06;;;;;;;3.00;2.40;;;22.70;64.10;;;;;;4942076;28;20026;-77
2022/08/25 02:20:32;;;;;;;3.60;2.40;;;22.70;63.60;;;;;;4970339;28;20553;-77
2022/08/25 02:22:58;;;;;;;2.80;2.50;;;22.70;63.80;;;;;;4971595;28;20026;-77
2022/08/25 02:25:24;;;;;;;3.13;2.63;;;22.70;63.90;;;;;;4961120;28;20150;-77
2022/08/25 02:27:49;;;;;;;2.93;2.57;;;22.60;64.00;;;;;;4954542;28;20049;-77
2022/08/25 02:30:15;;;;;;;3.13;2.50;;;22.60;64.10;;;;;;4945566;28;20053;-77
2022/08/25 02:32:41;;;;;;;3.80;2.63;;;22.50;64.10;;;;;;4924911;28;20022;-77
2022/08/25 02:35:08;;;;;;;4.00;2.70;;;22.50;64.20;;;;;;4951370;28;20089;-77
2022/08/25 02:37:34;;;;;;;3.25;2.70;;;22.40;64.40;;;;;;4969180;28;20026;-77
2022/08/25 02:40:01;;;;;;;2.60;2.40;;;22.40;64.50;;;;;;4954900;28;20057;-77
2022/08/25 02:42:27;;;;;;;3.67;2.80;;;22.30;64.70;;;;;;4955489;28;20224;-77
2022/08/25 02:44:52;;;;;;;3.25;2.53;;;22.40;64.80;;;;;;4948263;28;20034;-79
2022/08/25 02:47:19;;;;;;;3.10;2.58;;;22.30;64.90;;;;;;4952630;28;21753;-79
2022/08/25 02:49:44;;;;;;;2.70;2.43;;;22.30;65.20;;;;;;4945568;28;20308;-77
2022/08/25 02:52:10;;;;;;;4.03;2.58;;;22.30;65.20;;;;;;4971561;28;20510;-77
2022/08/25 02:54:36;;;;;;;3.00;2.35;;;22.20;65.20;;;;;;4935883;28;20581;-77
2022/08/25 02:57:03;;;;;;;2.87;2.57;;;22.20;65.20;;;;;;4973366;28;20874;-77
2022/08/25 02:59:28;;;;;;;2.92;2.55;;;22.20;65.20;;;;;;4965672;28;20018;-77
2022/08/25 03:01:54;;;;;;;3.15;2.80;;;22.10;65.30;;;;;;4975618;28;20029;-79
2022/08/25 03:04:20;;;;;;;2.87;2.57;;;22.10;65.40;;;;;;4942153;28;20030;-77
2022/08/25 03:06:46;;;;;;;2.75;2.38;;;22.10;65.40;;;;;;4973684;28;20049;-77
2022/08/25 03:09:13;;;;;;;3.77;2.63;;;22.00;65.60;;;;;;4960950;28;20387;-77
2022/08/25 03:11:39;;;;;;;3.47;2.63;;;22.00;65.70;;;;;;4967662;28;20637;-77
2022/08/25 03:14:06;;;;;;;3.42;2.70;;;22.00;65.70;;;;;;4965577;28;20023;-77
2022/08/25 03:16:33;;;;;;;3.00;2.33;;;21.90;66.60;;;;;;4970394;28;20502;-77
2022/08/25 03:18:59;;;;;;;3.25;2.40;;;21.90;65.80;;;;;;4965646;28;20038;-77
2022/08/25 03:21:26;;;;;;;3.03;2.50;;;21.90;66.00;;;;;;4930070;28;20213;-77
2022/08/25 03:23:52;;;;;;;2.70;2.50;;;21.90;66.10;;;;;;4959043;28;20220;-77
2022/08/25 03:29:05;;;;;;;3.10;2.58;;;21.80;66.00;;;;;;4971179;28;20121;-77
2022/08/25 03:31:32;;;;;;;3.78;2.67;;;21.80;66.10;;;;;;4971162;28;20121;-77
2022/08/25 03:33:58;;;;;;;3.47;2.60;;;21.80;66.30;;;;;;4938624;28;20483;-77
2022/08/25 03:36:24;;;;;;;3.03;2.50;;;21.70;66.20;;;;;;4940831;28;20236;-77
2022/08/25 03:38:51;;;;;;;2.55;2.25;;;21.70;66.20;;;;;;4946464;28;20030;-77
2022/08/25 03:41:24;;;;;;;3.70;2.60;;;21.60;66.30;;;;;;4962705;28;20122;-77
2022/08/25 03:43:51;;;;;;;3.53;2.50;;;21.60;67.00;;;;;;4974260;28;20034;-77
2022/08/25 03:46:26;;;;;;;2.90;2.50;;;21.60;66.40;;;;;;4941943;28;20031;-77
2022/08/25 03:48:52;;;;;;;3.63;2.78;;;21.60;66.60;;;;;;4957795;28;20125;-77
2022/08/25 03:51:46;;;;;;;3.05;2.70;;;21.60;66.40;;;;;;4930913;28;20328;-77
2022/08/25 03:54:14;;;;;;;3.55;2.28;;;21.50;68.10;;;;;;4956658;28;20097;-77
2022/08/25 03:56:39;;;;;;;4.53;2.40;;;21.50;66.40;;;;;;4965527;28;20027;-77
2022/08/25 03:59:08;;;;;;;3.20;2.63;;;21.50;66.40;;;;;;4962351;28;20029;-77
2022/08/25 04:01:35;;;;;;;3.28;2.40;;;21.50;66.50;;;;;;4970723;28;20133;-77
2022/08/25 04:04:01;;;;;;;3.33;2.67;;;21.50;66.60;;;;;;4970874;28;20077;-77
2022/08/25 04:06:27;;;;;;;2.50;2.30;;;21.40;66.60;;;;;;4933783;28;20445;-77
2022/08/25 04:08:52;;;;;;;3.70;2.70;;;21.40;66.50;;;;;;4939604;28;20042;-77
2022/08/25 04:11:21;;;;;;;2.60;2.33;;;21.40;66.50;;;;;;4958827;28;20068;-77
2022/08/25 04:13:47;;;;;;;2.80;2.50;;;21.40;66.70;;;;;;4956572;28;20037;-77
2022/08/25 04:16:34;;;;;;;2.67;2.38;;;21.40;66.50;;;;;;4944363;28;20231;-77
2022/08/25 04:19:03;;;;;;;3.25;2.50;;;21.40;66.60;;;;;;4955040;28;20018;-77
2022/08/25 04:21:29;;;;;;;3.03;2.22;;;21.40;66.60;;;;;;4972499;28;20375;-77
2022/08/25 04:23:55;;;;;;;3.22;2.75;;;21.30;66.50;;;;;;4951532;28;20501;-77
2022/08/25 04:26:32;;;;;;;4.10;2.30;;;21.30;66.50;;;;;;4963226;28;20228;-77
2022/08/25 04:28:59;;;;;;;2.70;2.28;;;21.40;67.30;;;;;;4971117;28;20061;-77
2022/08/25 04:31:26;;;;;;;3.08;2.25;;;21.30;66.60;;;;;;4948896;28;20075;-77
2022/08/25 04:33:53;;;;;;;4.25;2.70;;;21.30;66.60;;;;;;4972968;28;20088;-77
2022/08/25 04:36:20;;;;;;;3.85;2.58;;;21.30;66.50;;;;;;4956552;28;20286;-77
2022/08/25 04:38:48;;;;;;;3.50;2.37;;;21.20;66.50;;;;;;4937680;28;20026;-77
2022/08/25 04:41:16;;;;;;;3.05;2.22;;;21.20;66.70;;;;;;4957629;28;20346;-77
2022/08/25 04:43:43;;;;;;;3.60;2.38;;;21.20;66.60;;;;;;4971166;28;20084;-77
2022/08/25 04:46:14;;;;;;;3.65;2.50;;;21.20;66.50;;;;;;4962366;28;20415;-77
2022/08/25 04:48:41;;;;;;;3.00;2.40;;;21.10;67.00;;;;;;4958642;28;20435;-77
2022/08/25 04:51:09;;;;;;;2.60;2.20;;;21.10;66.60;;;;;;4971726;28;20519;-77
2022/08/25 04:53:35;;;;;;;4.18;2.58;;;21.10;66.70;;;;;;4937329;28;20518;-77
2022/08/25 04:56:04;;;;;;;3.00;2.60;;;21.10;66.70;;;;;;4933873;28;20023;-77
2022/08/25 04:58:30;;;;;;;2.72;2.30;;;21.00;66.70;;;;;;4968079;28;20530;-77
2022/08/25 05:01:02;;;;;;;2.92;2.33;;;21.00;66.80;;;;;;4961362;28;20101;-77
2022/08/25 05:03:28;;;;;;;6.87;2.57;;;21.00;67.30;;;;;;4950143;28;20045;-77
2022/08/25 05:05:53;;;;;;;3.40;2.50;;;21.00;66.80;;;;;;4942724;28;20030;-77
2022/08/25 05:08:19;;;;;;;3.20;2.50;;;20.90;66.80;;;;;;4925442;28;20655;-77
2022/08/25 05:10:45;;;;;;;2.90;2.47;;;20.90;67.00;;;;;;4972645;28;20039;-77
2022/08/25 05:13:10;;;;;;;3.97;2.50;;;21.00;67.10;;;;;;4943715;28;20088;-77
2022/08/25 05:15:51;;;;;;;3.00;2.40;;;20.90;67.20;;;;;;4955151;28;20038;-77
2022/08/25 05:18:19;;;;;;;3.13;2.30;;;20.90;67.30;;;;;;4943061;28;20591;-77
2022/08/25 05:20:44;;;;;;;3.78;2.55;;;20.90;67.40;;;;;;4975258;28;20022;-77
2022/08/25 05:23:10;;;;;;;3.17;2.60;;;20.90;67.40;;;;;;4938207;28;20030;-77
2022/08/25 05:25:36;;;;;;;3.45;2.60;;;20.80;67.50;;;;;;4961444;28;20169;-77
2022/08/25 05:28:03;;;;;;;3.20;2.60;;;20.80;67.50;;;;;;4939210;28;20054;-77
2022/08/25 05:30:28;;;;;;;3.00;2.40;;;20.90;67.80;;;;;;4941601;28;20193;-77
2022/08/25 05:32:54;;;;;;;3.05;2.50;;;20.90;67.90;;;;;;4969238;28;20084;-77
2022/08/25 05:35:20;;;;;;;3.17;2.60;;;20.90;68.00;;;;;;4965196;28;20332;-77
2022/08/25 05:37:46;;;;;;;4.70;2.70;;;20.90;68.10;;;;;;4957930;28;20185;-77
2022/08/25 05:40:12;;;;;;;3.50;2.60;;;20.90;68.10;;;;;;4939737;28;20063;-77
2022/08/25 05:42:37;;;;;;;3.47;2.60;;;21.00;68.30;;;;;;4958512;28;20557;-77
2022/08/25 05:45:04;;;;;;;3.30;2.53;;;21.00;68.50;;;;;;4955382;28;20038;-77
2022/08/25 05:47:30;;;;;;;3.50;2.42;;;21.10;68.70;;;;;;4965128;28;20432;-77
2022/08/25 05:49:56;;;;;;;2.85;2.50;;;21.10;68.80;;;;;;4956515;28;20376;-77
2022/08/25 05:52:22;;;;;;;3.93;2.67;;;21.20;69.00;;;;;;4952717;28;20189;-77
2022/08/25 05:54:48;;;;;;;3.22;2.47;;;21.20;69.10;;;;;;4947510;28;20030;-77
2022/08/25 05:57:13;;;;;;;3.37;2.40;;;21.30;69.30;;;;;;4970085;28;20036;-77
2022/08/25 05:59:39;;;;;;;3.58;2.40;;;21.30;69.20;;;;;;4934748;28;20126;-78
2022/08/25 06:04:50;;;;;;;4.13;2.58;;;21.50;69.50;;;;;;4938512;28;20031;-77
2022/08/25 06:07:16;;;;;;;3.13;2.53;;;21.60;69.40;;;;;;4949545;28;20050;-77
2022/08/25 06:09:44;;;;;;;2.90;2.60;;;21.70;69.40;;;;;;4934866;28;20323;-79
2022/08/25 06:12:10;;;;;;;3.03;2.45;;;21.70;69.30;;;;;;4943547;28;20026;-77
2022/08/25 06:14:36;;;;;;;2.50;2.25;;;21.80;69.30;;;;;;4962849;28;20030;-79
2022/08/25 06:17:02;;;;;;;3.20;2.50;;;21.90;69.20;;;;;;4960551;28;20300;-79
2022/08/25 06:19:28;;;;;;;3.58;2.45;;;22.00;69.40;;;;;;4954161;28;20027;-77
2022/08/25 06:21:55;;;;;;;4.45;2.40;;;22.10;69.40;;;;;;4953240;28;20023;-78
2022/08/25 06:24:21;;;;;;;2.50;2.30;;;22.20;69.50;;;;;;4912995;28;20058;-77
2022/08/25 06:26:46;;;;;;;5.10;2.50;;;22.30;69.40;;;;;;4971349;28;20184;-75
2022/08/25 06:29:13;;;;;;;3.58;2.60;;;22.40;69.30;;;;;;4959555;28;20105;-77
2022/08/25 06:31:38;;;;;;;3.60;2.60;;;22.50;69.10;;;;;;4967015;28;20435;-80
2022/08/25 06:34:05;;;;;;;3.20;2.20;;;22.60;69.10;;;;;;4948678;28;20022;-77
2022/08/25 06:36:31;;;;;;;3.15;2.22;;;22.70;69.00;;;;;;4975418;28;20382;-78
2022/08/25 06:38:57;;;;;;;4.50;2.28;;;22.80;68.80;;;;;;4968667;28;20085;-78
2022/08/25 06:41:24;;;;;;;2.57;2.13;;;22.90;68.70;;;;;;4928034;28;20451;-77
2022/08/25 06:43:50;;;;;;;3.13;2.38;;;23.00;68.60;;;;;;4960556;28;20084;-78
2022/08/25 06:46:18;;;;;;;3.15;2.38;;;23.10;68.60;;;;;;4959085;28;20027;-77
2022/08/25 06:48:44;;;;;;;3.95;2.80;;;23.20;68.70;;;;;;4951024;28;20089;-78
2022/08/25 06:51:13;;;;;;;3.43;2.50;;;23.30;68.60;;;;;;4964014;28;20495;-77
2022/08/25 06:53:39;;;;;;;3.35;2.17;;;23.40;68.60;;;;;;4958885;28;20145;-78
2022/08/25 06:56:05;;;;;;;3.28;2.13;;;23.50;68.40;;;;;;4927537;28;20026;-78
2022/08/25 06:58:32;;;;;;;2.40;2.10;;;23.60;68.30;;;;;;4964374;28;20431;-77
2022/08/25 07:01:19;;;;;;;2.75;2.30;;;23.70;68.10;;;;;;4945387;28;20369;-77
2022/08/25 07:03:45;;;;;;;2.95;2.30;;;23.80;67.60;;;;;;4961680;28;20079;-78
2022/08/25 07:06:11;;;;;;;3.60;2.20;;;23.80;67.80;;;;;;4966091;28;20484;-78
2022/08/25 07:08:37;;;;;;;3.07;2.50;;;23.90;68.00;;;;;;4966388;28;20177;-77
2022/08/25 07:11:07;;;;;;;3.90;2.53;;;24.10;68.00;;;;;;4968997;28;20029;-78
2022/08/25 07:13:34;;;;;;;3.05;2.60;;;24.10;67.80;;;;;;4919638;28;20470;-78
2022/08/25 07:16:00;;;;;;;3.90;2.28;;;24.20;67.80;;;;;;4968629;28;20878;-77
2022/08/25 07:18:26;;;;;;;2.60;2.20;;;24.30;67.70;;;;;;4957204;28;20022;-78
2022/08/25 07:20:52;;;;;;;2.35;2.15;;;24.40;67.70;;;;;;4963601;28;20034;-78
2022/08/25 07:23:19;;;;;;;2.70;1.95;;;24.50;67.60;;;;;;4939820;28;20244;-78
2022/08/25 07:25:46;;;;;;;2.35;2.13;;;24.60;67.60;;;;;;4964131;28;20027;-77
2022/08/25 07:28:12;;;;;;;4.37;2.30;;;24.70;67.60;;;;;;4947442;28;20058;-77
2022/08/25 07:30:38;;;;;;;2.95;2.25;;;24.80;67.80;;;;;;4966008;28;20109;-77
2022/08/25 07:33:04;;;;;;;2.75;2.13;;;25.00;67.80;;;;;;4960525;28;20023;-77
2022/08/25 07:35:31;;;;;;;3.50;2.50;;;25.10;67.70;;;;;;4956762;28;20035;-77
2022/08/25 07:37:57;;;;;;;2.85;2.28;;;25.30;67.40;;;;;;4969849;28;20033;-78
2022/08/25 07:40:29;;;;;;;2.75;2.40;;;25.40;67.20;;;;;;4949059;28;20041;-77
2022/08/25 07:42:58;;;;;;;3.88;2.20;;;25.60;66.70;;;;;;4930483;28;20149;-77
2022/08/25 07:45:29;;;;;;;2.97;2.10;;;25.70;66.40;;;;;;4921230;28;20038;-77
2022/08/25 07:48:08;;;;;;;3.28;2.28;;;25.80;66.10;;;;;;4938069;28;20033;-77
2022/08/25 07:50:37;;;;;;;2.72;2.08;;;26.00;65.70;;;;;;4945090;28;20080;-78
2022/08/25 07:53:04;;;;;;;2.92;2.30;;;26.10;66.00;;;;;;4962691;28;20041;-77
2022/08/25 07:55:30;;;;;;;3.25;2.17;;;26.20;65.80;;;;;;4948639;28;20697;-78
2022/08/25 07:57:58;;;;;;;3.07;2.00;;;26.40;65.50;;;;;;4949217;28;20034;-77
2022/08/25 08:00:29;;;;;;;2.47;2.10;;;26.50;65.50;;;;;;4934267;28;20435;-77
2022/08/25 08:03:00;;;;;;;3.17;2.00;;;26.60;65.30;;;;;;4965142;28;20026;-77
2022/08/25 08:05:26;;;;;;;3.35;2.22;;;26.90;64.60;;;;;;4952578;28;20230;-78
2022/08/25 08:07:53;;;;;;;2.92;2.00;;;27.10;65.20;;;;;;4969217;28;20045;-78
2022/08/25 08:10:20;;;;;;;3.70;1.90;;;27.40;64.80;;;;;;4958403;28;20998;-77
2022/08/25 08:12:46;;;;;;;2.95;2.05;;;27.60;64.90;;;;;;4969125;28;20035;-78
2022/08/25 08:15:13;;;;;;;3.30;1.92;;;27.90;64.50;;;;;;4942927;28;20432;-78
2022/08/25 08:17:39;;;;;;;2.83;2.20;;;28.10;64.50;;;;;;4970148;28;20047;-78
2022/08/25 08:20:09;;;;;;;2.13;1.80;;;28.30;64.00;;;;;;4950989;28;20315;-77
2022/08/25 08:22:38;;;;;;;2.03;1.83;;;28.70;63.30;;;;;;4986333;28;20022;-78
2022/08/25 08:25:04;;;;;;;3.25;2.15;;;29.00;63.20;;;;;;4968868;28;20045;-78
2022/08/25 08:27:30;;;;;;;2.10;1.77;;;29.20;62.50;;;;;;4979811;28;20719;-78
2022/08/25 08:29:56;;;;;;;2.80;1.80;;;29.40;61.60;;;;;;4943181;28;20033;-77
2022/08/25 08:32:22;;;;;;;2.67;1.63;;;29.60;60.60;;;;;;4966382;28;20419;-79
2022/08/25 08:34:48;;;;;;;2.78;1.70;;;29.70;59.80;;;;;;4966017;28;20089;-78
2022/08/25 08:37:14;;;;;;;2.10;1.90;;;29.80;59.20;;;;;;4969949;28;20104;-78
2022/08/25 08:39:40;;;;;;;2.15;1.85;;;29.90;59.10;;;;;;4971046;28;20022;-78
2022/08/25 08:42:27;;;;;;;1.85;1.63;;;30.00;59.50;;;;;;4956397;28;20027;-78
2022/08/25 08:45:09;;;;;;;1.85;1.52;;;30.20;59.10;;;;;;4942654;28;20247;-78
2022/08/25 08:47:49;;;;;;;2.42;1.60;;;30.40;58.50;;;;;;4944696;28;20041;-78
2022/08/25 08:50:53;;;;;;;3.77;1.80;;;30.80;58.10;;;;;;4968076;28;20388;-78
2022/08/25 08:53:51;;;;;;;3.10;1.70;;;31.20;57.80;;;;;;4975844;28;20042;-78
2022/08/25 08:56:35;;;;;;;2.05;1.80;;;31.80;59.10;;;;;;4923647;28;20046;-78
2022/08/25 08:59:21;;;;;;;2.28;1.70;;;32.30;57.20;;;;;;4969519;28;20022;-78
2022/08/25 09:01:58;;;;;;;3.10;2.05;;;32.80;60.10;;;;;;4945227;28;20030;-78
2022/08/25 09:04:50;;;;;;;1.93;1.60;;;33.50;57.70;;;;;;4965833;28;20085;-78
2022/08/25 09:07:21;;;;;;;2.47;2.28;;;34.10;56.10;;;;;;4929801;28;20033;-79
2022/08/25 09:09:47;;;;;;;2.45;2.25;;;34.60;55.90;;;;;;4952394;28;20121;-78
2022/08/25 09:12:22;;;;;;;4.43;2.13;;;35.20;56.60;;;;;;4949232;28;20029;-78
2022/08/25 09:15:03;;;;;;;5.05;2.63;;;35.60;52.90;;;;;;4970283;28;20081;-78
2022/08/25 09:17:47;;;;;;;2.30;1.90;;;36.20;54.80;;;;;;4929200;28;20044;-79
2022/08/25 09:20:37;;;;;;;2.60;2.40;;;36.70;53.40;;;;;;4957489;28;20027;-78
2022/08/25 09:23:15;;;;;;;2.42;1.90;;;37.20;49.80;;;;;;4951858;28;20526;-79
2022/08/25 09:26:01;;;;;;;2.60;2.40;;;37.60;49.60;;;;;;4970513;28;20058;-78
2022/08/25 09:28:52;;;;;;;2.53;2.33;;;37.90;47.70;;;;;;4956126;28;20734;-78
2022/08/25 09:31:20;;;;;;;3.27;2.40;;;38.40;46.20;;;;;;4963853;28;20331;-79
2022/08/25 09:33:46;;;;;;;2.65;2.20;;;38.60;46.10;;;;;;4914940;28;20849;-78
2022/08/25 09:36:13;;;;;;;2.60;2.33;;;38.80;46.50;;;;;;4964900;28;20113;-78
2022/08/25 09:38:39;;;;;;;3.28;2.65;;;39.10;45.90;;;;;;4960021;28;20054;-79
2022/08/25 09:41:06;;;;;;;3.25;2.95;;;39.20;46.30;;;;;;4975740;28;20026;-78
2022/08/25 09:43:33;;;;;;;3.03;2.83;;;39.60;45.10;;;;;;4961851;28;20575;-79
2022/08/25 09:46:01;;;;;;;3.28;2.78;;;39.80;45.00;;;;;;4945910;28;20128;-78
2022/08/25 09:48:36;;;;;;;3.30;3.00;;;40.10;43.10;;;;;;4972322;28;20150;-78
2022/08/25 09:51:11;;;;;;;3.20;2.80;;;40.40;41.20;;;;;;4944764;28;20023;-78
2022/08/25 09:54:06;;;;;;;3.28;2.97;;;40.70;40.80;;;;;;4963732;28;20042;-78
2022/08/25 09:56:32;;;;;;;2.87;2.67;;;40.90;40.40;;;;;;4938040;28;20039;-79
2022/08/25 09:59:23;;;;;;;3.42;3.13;;;41.10;40.60;;;;;;4971794;28;20022;-78
2022/08/25 10:01:49;;;;;;;4.28;2.85;;;41.30;38.60;;;;;;4951214;28;20069;-78
2022/08/25 10:04:30;;;;;;;3.15;2.95;;;41.60;40.00;;;;;;4975790;28;20159;-78
2022/08/25 10:06:57;;;;;;;3.63;2.90;;;41.80;37.60;;;;;;4928115;28;20499;-79
2022/08/25 10:09:29;;;;;;;4.85;3.45;;;42.10;39.00;;;;;;4961272;28;20026;-78
2022/08/25 10:11:58;;;;;;;3.85;3.13;;;42.30;37.60;;;;;;4947243;28;20394;-78
2022/08/25 10:14:34;;;;;;;3.10;2.90;;;42.50;37.80;;;;;;4967570;28;20388;-78
2022/08/25 10:17:27;;;;;;;3.22;2.92;;;42.70;36.80;;;;;;4953772;28;20026;-78
2022/08/25 10:20:10;;;;;;;3.90;2.90;;;42.90;34.90;;;;;;4961062;28;20031;-78
2022/08/25 10:22:38;;;;;;;2.92;2.72;;;43.10;35.50;;;;;;4959924;28;20594;-79
2022/08/25 10:25:06;;;;;;;3.90;3.03;;;43.30;35.00;;;;;;4973376;28;20129;-78
2022/08/25 10:27:52;;;;;;;2.97;2.78;;;43.40;34.50;;;;;;4944855;28;20125;-78
2022/08/25 10:30:30;;;;;;;3.58;3.33;;;43.70;33.30;;;;;;4973340;28;20034;-78
2022/08/25 10:33:22;;;;;;;2.80;2.60;;;43.80;32.70;;;;;;4959871;28;20106;-78
2022/08/25 10:35:57;;;;;;;3.00;2.80;;;44.00;31.40;;;;;;4914066;28;20038;-78
2022/08/25 10:38:57;;;;;;;3.78;3.47;;;44.30;32.40;;;;;;4962976;28;20042;-79
2022/08/25 10:42:00;;;;;;;3.85;3.55;;;44.40;31.80;;;;;;4920873;28;20038;-79
2022/08/25 10:47:16;;;;;;;3.97;3.67;;;45.00;31.60;;;;;;4938339;28;20685;-78
2022/08/25 10:49:50;;;;;;;4.03;3.70;;;45.10;30.20;;;;;;4951226;28;20042;-79
2022/08/25 10:52:36;;;;;;;4.30;3.78;;;45.20;29.30;;;;;;4948298;28;20388;-78
2022/08/25 10:55:29;;;;;;;3.88;3.58;;;45.30;29.20;;;;;;4962045;28;20677;-78
2022/08/25 10:58:28;;;;;;;3.70;3.40;;;45.30;28.40;;;;;;4953406;28;20073;-79
2022/08/25 11:01:33;;;;;;;3.73;3.47;;;45.40;28.10;;;;;;4964545;28;20141;-79
2022/08/25 11:04:04;;;;;;;3.80;3.53;;;45.40;28.30;;;;;;4948805;28;20054;-79
2022/08/25 11:06:46;;;;;;;3.67;3.33;;;45.60;28.30;;;;;;4946756;28;20329;-78
2022/08/25 11:09:18;;;;;;;4.85;3.45;;;45.70;27.50;;;;;;4937756;28;20043;-78
2022/08/25 11:11:52;;;;;;;3.67;3.38;;;45.90;28.00;;;;;;4960645;28;20288;-78
2022/08/25 11:14:28;;;;;;;4.30;3.97;;;46.00;27.50;;;;;;4966404;28;20125;-78
2022/08/25 11:16:58;;;;;;;3.83;3.53;;;46.10;27.10;;;;;;4974175;28;20030;-78
2022/08/25 11:19:40;;;;;;;4.25;3.95;;;46.30;26.70;;;;;;4947706;28;20061;-78
2022/08/25 11:22:15;;;;;;;3.25;3.05;;;46.40;26.30;;;;;;4969976;28;20896;-78
2022/08/25 11:25:10;;;;;;;3.42;3.13;;;46.30;25.70;;;;;;4943565;28;20121;-79
2022/08/25 11:27:56;;;;;;;2.90;2.70;;;46.20;27.00;;;;;;4959631;28;20438;-78
2022/08/25 11:30:22;;;;;;;3.30;3.08;;;46.10;25.40;;;;;;4970597;28;20492;-78
2022/08/25 11:32:51;;;;;;;3.70;3.40;;;46.10;26.30;;;;;;4973418;28;20459;-79
2022/08/25 11:35:35;;;;;;;3.65;3.35;;;46.10;26.00;;;;;;4955855;28;20180;-78
2022/08/25 11:38:19;;;;;;;4.18;3.80;;;46.10;25.70;;;;;;4979802;28;20030;-78
2022/08/25 11:41:29;;;;;;;3.40;3.20;;;46.10;25.40;;;;;;4939180;28;20066;-79
2022/08/25 11:44:32;;;;;;;3.65;3.38;;;46.20;25.60;;;;;;4948325;28;20051;-79
2022/08/25 11:47:04;;;;;;;4.10;3.80;;;46.40;25.50;;;;;;4954699;28;20066;-79
2022/08/25 11:49:46;;;;;;;3.35;3.15;;;46.40;25.30;;;;;;4982177;28;20026;-78
2022/08/25 11:52:44;;;;;;;3.90;3.60;;;46.50;24.80;;;;;;4959287;28;20307;-78
2022/08/25 11:55:22;;;;;;;3.60;3.40;;;46.50;24.90;;;;;;4923287;28;20244;-78
2022/08/25 11:57:50;;;;;;;3.72;3.45;;;46.60;24.50;;;;;;4949207;28;20112;-78
2022/08/25 12:00:39;;;;;;;3.90;3.60;;;46.60;25.00;;;;;;4955361;28;20560;-78
2022/08/25 12:03:40;;;;;;;3.40;3.13;;;46.70;24.50;;;;;;4966274;28;20531;-78
2022/08/25 12:06:20;;;;;;;4.15;3.75;;;46.80;24.70;;;;;;4878967;29;20123;-78
2022/08/25 12:09:04;;;;;;;3.47;2.90;;;46.90;24.80;;;;;;4939795;28;20182;-79
2022/08/25 12:11:37;;;;;;;3.00;2.80;;;46.90;24.00;;;;;;4957474;28;20018;-78
2022/08/25 12:14:20;;;;;;;2.90;2.70;;;46.50;23.10;;;;;;4976701;28;20367;-78
2022/08/25 12:16:55;;;;;;;2.42;2.22;;;46.20;23.30;;;;;;4979578;28;20065;-79
2022/08/25 12:19:24;;;;;;;2.83;2.63;;;45.90;23.50;;;;;;4960306;28;20122;-79
2022/08/25 12:21:51;;;;;;;3.53;3.23;;;45.80;23.90;;;;;;4925809;28;20059;-79
2022/08/25 12:24:23;;;;;;;2.95;2.72;;;45.70;24.20;;;;;;4964171;28;20034;-78
2022/08/25 12:27:03;;;;;;;3.38;3.17;;;45.70;24.00;;;;;;4956085;28;20031;-78
2022/08/25 12:29:40;;;;;;;3.35;3.05;;;45.70;24.00;;;;;;4927976;28;20447;-79
2022/08/25 12:32:17;;;;;;;3.15;2.95;;;45.90;24.00;;;;;;4945814;28;20496;-78
2022/08/25 12:35:11;;;;;;;2.97;2.53;;;46.00;23.70;;;;;;4936276;28;20026;-79
2022/08/25 12:37:53;;;;;;;2.40;2.20;;;46.00;23.60;;;;;;4945494;28;20031;-79
2022/08/25 12:40:33;;;;;;;2.83;2.63;;;46.00;23.50;;;;;;4929902;28;20557;-78
2022/08/25 12:43:20;;;;;;;2.78;2.58;;;46.00;23.40;;;;;;4937143;28;20053;-78
2022/08/25 12:45:48;;;;;;;2.67;2.40;;;46.00;23.60;;;;;;4942803;28;20161;-78
2022/08/25 12:48:26;;;;;;;3.20;3.00;;;46.20;24.20;;;;;;4953127;28;20041;-78
2022/08/25 12:51:14;;;;;;;3.42;3.22;;;46.40;23.50;;;;;;4916821;28;20114;-78
2022/08/25 12:53:47;;;;;;;3.80;3.25;;;46.60;23.40;;;;;;4954049;28;20030;-78
2022/08/25 12:56:26;;;;;;;2.40;2.30;;;46.80;23.70;;;;;;4922231;28;20599;-78
2022/08/25 12:59:14;;;;;;;3.72;3.38;;;47.00;22.90;;;;;;4941161;28;20034;-78
2022/08/25 13:01:55;;;;;;;3.23;3.03;;;47.20;22.90;;;;;;4944409;28;20054;-78
2022/08/25 13:04:36;;;;;;;3.38;2.50;;;47.10;22.40;;;;;;4953168;28;20276;-79
2022/08/25 13:07:04;;;;;;;3.10;2.63;;;46.90;22.20;;;;;;4941103;28;20039;-78
2022/08/25 13:09:46;;;;;;;2.70;2.50;;;46.60;22.60;;;;;;4953235;28;20023;-79
2022/08/25 13:12:56;;;;;;;2.92;2.72;;;46.50;22.20;;;;;;4932386;28;20902;-78
2022/08/25 13:16:01;;;;;;;2.73;2.53;;;46.30;22.50;;;;;;4934739;28;20031;-78
2022/08/25 13:18:28;;;;;;;2.70;2.50;;;46.20;22.60;;;;;;4927795;28;20181;-78
2022/08/25 13:21:17;;;;;;;3.28;2.53;;;46.20;23.10;;;;;;4950369;28;20542;-78